Ely, Nevada Weather observations

Data are for observation ending at time listed.
 Day   Time    Ave.   Ave.  Ave.  Vector   Max.   Stn.    Total    Solar   Ave.  
  of    of     Air    Rel.  Wind   Wind    Wind   Baro.  Precip.   Rad.    Soil  
Year   Day     Temp.  Hum.  Speed  Dir.    Gust   Pres.                    Temp. 
2016   (PST)    F      %     mph   deg.    mph     mb.     in.     W/m2     F   
------------------------------------------------------------------------------
  43   16:30   40.9    58    4.0   112      5.6   815.6    0.00      91    31.4
  43   16:40   39.6    62    4.0   147      6.1   815.6    0.00      81    31.4
  43   16:50   39.1    62    6.3   154      9.3   815.7    0.00      61    31.4
  43   17:00   36.6    72    8.0   143      9.6   815.7    0.00      34    31.4
  43   17:10   36.1    71    7.5   157      9.6   815.7    0.00      14    31.4
  43   17:20   36.2    69    6.3   172      9.3   815.8    0.00       7    31.4
  43   17:30   34.9    72    7.9   177      9.9   815.8    0.00       2    31.5
  43   17:40   36.3    66    8.1   163     10.4   815.9    0.00       0    31.5
  43   17:50   36.5    66    7.1   157     10.2   816.0    0.00       0    31.5
  43   18:00   35.5    68    9.0   152     11.5   816.1    0.00       0    31.4
  43   18:10   35.0    69    8.4   139      9.6   816.0    0.00       0    31.5
  43   18:20   33.7    73    8.8   142     11.8   816.1    0.00       0    31.5
  43   18:30   34.5    69    8.9   155     12.7   816.2    0.00       1    31.5
  43   18:40   34.3    69    9.2   150     12.1   816.2    0.00       0    31.5
  43   18:50   33.8    71    7.1   152      9.6   816.2    0.00       0    31.4
  43   19:00   33.0    74    8.7   140     10.4   816.2    0.00       0    31.4
  43   19:10   32.8    73    7.9   141      9.4   816.1    0.00       0    31.5
  43   19:20   34.3    66    6.8   150      8.6   816.1    0.00       0    31.5
  43   19:30   33.8    68    6.9   141      8.1   816.1    0.00       0    31.5
  43   19:40   33.1    69    4.3   119      7.7   816.2    0.00       0    31.5
  43   19:50   33.3    67    4.9   144      6.7   816.2    0.00       0    31.5
  43   20:00   31.9    70    4.2   154      6.1   816.3    0.00       0    31.5
  43   20:10   31.4    72    4.6   162      7.5   816.2    0.00       0    31.5
  43   20:20   32.8    66    7.9   168     10.7   816.2    0.00       0    31.5
  43   20:30   33.9    61    7.0   167     10.8   816.2    0.00       0    31.5
  43   20:40   32.4    65    8.6   156     13.0   816.2    0.00       0    31.5
  43   20:50   30.1    71   11.8   145     14.2   816.2    0.00       0    31.5
  43   21:00   29.3    73   10.8   144     12.9   816.2    0.00       0    31.5
  43   21:10   28.8    74    8.2   144     11.5   816.2    0.00       1    31.5
  43   21:20   28.7    74    3.1   145      7.2   816.3    0.00       1    31.5
  43   21:30   29.2    72    4.4   140      7.9   816.2    0.00       1    31.5
  43   21:40   27.7    74    5.6   160      9.1   816.3    0.00       1    31.5
  43   21:50   27.9    73    8.5   159     10.8   816.3    0.00       0    31.5
  43   22:00   28.6    69    9.4   152     12.0   816.3    0.00       0    31.5
  43   22:10   27.3    71    8.9   149     11.2   816.3    0.00       0    31.4
  43   22:20   27.4    70    7.8   146     11.0   816.3    0.00       0    31.4
  43   22:30   27.1    70    5.6   141      8.6   816.3    0.00       0    31.4
  43   22:40   25.7    72    8.4   154     11.6   816.2    0.00       0    31.4
  43   22:50   26.7    68   11.5   156     14.2   816.2    0.00       0    31.4
  43   23:00   24.8    73   11.0   145     12.9   816.1    0.00       0    31.3
  43   23:10   24.4    73   10.7   148     13.9   816.1    0.00       0    31.3
  43   23:20   23.8    73    9.9   150     12.4   816.1    0.00       0    31.3
  43   23:30   23.5    74    9.3   146     12.1   816.1    0.00       0    31.2
  43   23:40   23.0    75    8.7   148     11.2   816.2    0.00       0    31.2
  43   23:50   22.7    75   10.3   145     12.3   816.2    0.00       0    31.1
  44    0:00   23.3    74    9.6   143     12.5   816.2    0.00       0    31.0
  44    0:10   23.4    74   10.4   140     11.5   816.1    0.00       0    31.0
  44    0:20   24.1    72   10.3   145     12.4   816.1    0.00       0    30.9
  44    0:30   24.5    70   10.4   150     13.1   816.1    0.00       0    30.8
  44    0:40   24.4    68   10.9   153     13.2   816.1    0.00       0    30.7
  44    0:50   22.2    73   11.1   150     14.8   816.1    0.00       0    30.6
  44    1:00   22.3    74   11.3   151     14.0   816.1    0.00       0    30.5
  44    1:10   23.6    70   13.6   151     16.3   816.0    0.00       0    30.3
  44    1:20   22.8    72   13.1   146     15.8   816.1    0.00       0    30.2
  44    1:30   23.6    72   14.1   144     17.7   816.0    0.00       0    30.1
  44    1:40   25.0    68   13.5   154     17.2   816.0    0.00       0    29.9
  44    1:50   24.8    67   12.8   158     16.7   816.0    0.00       0    29.7
  44    2:00   23.5    70   13.3   160     16.7   816.0    0.00       0    29.7
  44    2:10   22.8    72   14.2   154     17.5   816.0    0.00       0    29.5
  44    2:20   22.7    72   14.4   150     17.2   816.0    0.00       0    29.3
  44    2:30   23.2    72   14.2   148     17.5   815.9    0.00       0    29.2
  44    2:40   23.3    71   15.3   149     17.9   815.8    0.00       0    29.0
  44    2:50   22.5    71   16.1   154     19.1   815.8    0.00       0    28.9
  44    3:00   21.2    74   13.4   154     17.3   815.8    0.00       0    28.7
  44    3:10   21.9    74   10.5   158     13.7   815.7    0.00       0    28.5
  44    3:20   20.9    74   12.9   162     16.4   815.6    0.00       0    28.4
  44    3:30   20.3    75   13.2   159     16.8   815.5    0.00       0    28.2
  44    3:40   20.9    74   12.4   154     15.6   815.6    0.00       0    28.0
  44    3:50   20.3    74   12.7   150     15.6   815.6    0.00       0    27.8
  44    4:00   19.7    74   12.1   148     15.2   815.6    0.00       0    27.7
  44    4:10   20.4    75   11.8   152     15.8   815.6    0.00       0    27.5
  44    4:20   21.9    71   12.5   155     18.0   815.6    0.00       0    27.4
  44    4:30   22.4    70   12.6   154     16.4   815.6    0.00       0    27.3
  44    4:40   21.7    71   12.6   147     16.0   815.7    0.00       0    27.2
  44    4:50   20.5    76   14.2   134     16.9   815.7    0.00       0    27.1
  44    5:00   21.2    75   14.0   137     18.5   815.7    0.00       0    27.0
  44    5:10   21.5    75   13.3   140     15.3   815.8    0.00       0    26.8
  44    5:20   21.2    75   13.4   141     15.6   815.8    0.00       0    26.7
  44    5:30   20.8    75   13.2   142     15.4   815.9    0.00       0    26.6
  44    5:40   18.8    77   12.4   146     15.5   815.9    0.00       0    26.5
  44    5:50   19.1    76   15.2   153     18.5   815.9    0.00       0    26.4
  44    6:00   19.9    74   15.3   152     19.3   815.9    0.00       0    26.3
  44    6:10   20.5    74   16.0   148     19.2   815.9    0.00       0    26.2
  44    6:20   20.6    74   15.2   146     18.8   815.9    0.00       0    26.1
  44    6:30   22.8    70   17.1   150     20.0   815.9    0.00       4    26.0
  44    6:40   22.5    70   17.5   153     21.0   816.0    0.00       7    26.0
  44    6:50   22.1    72   16.3   150     20.6   816.1    0.00      10    26.0
  44    7:00   20.7    75   16.4   149     20.0   816.2    0.00      20    26.0
  44    7:10   21.0    75   15.5   144     18.4   816.2    0.00      39    25.9
  44    7:20   21.7    75   14.4   144     18.0   816.4    0.00      76    25.9
  44    7:30   22.1    74   15.4   151     18.3   816.4    0.00      88    26.0
  44    7:40   22.4    73   15.8   154     18.6   816.6    0.00      81    26.0
  44    7:50   22.5    74   13.4   151     17.5   816.6    0.00      81    26.1
  44    8:00   22.5    73   13.0   159     16.8   816.7    0.00     117    26.1
  44    8:10   23.0    72   13.7   150     16.9   816.7    0.00     340    26.1
  44    8:20   24.4    69   16.0   157     19.2   816.6    0.00     474    26.3
  44    8:30   26.1    67   12.4   153     16.1   816.7    0.00     502    26.5
  44    8:40   27.3    67   13.3   155     16.4   816.5    0.00     411    26.8
  44    8:50   29.2    64   11.7   156     14.9   816.5    0.00     324    27.0
  44    9:00   29.7    62   12.7   156     15.7   816.6    0.00     387    27.3
  44    9:10   30.8    61   13.6   157     16.2   816.7    0.00     407    27.6
  44    9:20   30.6    64   12.6   151     15.6   816.7    0.00     551    27.8
  44    9:30   31.5    63   12.0   148     14.8   816.7    0.00     462    28.0
  44    9:40   32.6    61   12.6   150     15.6   816.8    0.00     483    28.3
  44    9:50   32.7    62   11.8   150     14.6   816.9    0.00     510    28.6
  44   10:00   33.8    61   10.9   152     13.1   816.9    0.00     491    28.9
  44   10:10   34.5    59    9.8   156     12.2   816.9    0.00     505    29.1
  44   10:20   34.8    61    9.0   152     10.6   817.0    0.00     483    29.3
  44   10:30   36.1    63    7.4   148     10.6   817.1    0.00     571    29.5
  44   10:40   39.0    59    4.3   132      6.8   817.2    0.00     619    29.7
  44   10:50   40.9    57    3.9   117      5.0   817.2    0.00     511    29.9
  44   11:00   41.4    60    3.8   114      6.2   817.1    0.00     417    30.0
  44   11:10   40.9    58    4.1   150      5.3   817.1    0.00     262    30.1
  44   11:20   40.7    58    3.1   174      4.5   817.0    0.00     546    30.3
  44   11:30   44.9    43    1.5   173      3.1   817.0    0.00     697    30.4
  44   11:40   47.9    37    1.2   223      2.3   816.9    0.00     749    30.5
  44   11:50   51.0    32    0.1   286      1.0   816.9    0.00     815    30.5
  44   12:00   51.8    32    1.0   330      2.3   816.8    0.00     644    30.6
  44   12:10   50.6    35    1.2   191      2.4   816.7    0.00     616    30.6
  44   12:20   50.6    38    2.6   114      3.9   816.5    0.00     690    30.7
  44   12:30   49.0    38    4.0   140      5.4   816.4    0.00     716    30.7
  44   12:40   47.1    41    4.8   139      5.6   816.4    0.00     712    30.8
  44   12:50   49.5    36    2.6   176      4.4   816.3    0.00     701    30.9
  44   13:00   52.4    32    2.7   210      4.2   816.1    0.00     693    30.9
  44   13:10   53.6    31    2.1   161      3.4   815.9    0.00     682    30.9
  44   13:20   56.3    26    0.4   103      2.7   815.8    0.00     665    31.0
  44   13:30   52.0    32    1.4    70      4.1   815.7    0.00     652    31.0
  44   13:40   51.4    31    1.5    53      2.9   815.7    0.00     633    31.0
  44   13:50   50.8    33    2.5    58      4.4   815.7    0.00     614    31.1
  44   14:00   48.7    37    3.5    48      4.7   815.7    0.00     591    31.1
  44   14:10   49.0    35    2.5    55      5.0   815.7    0.00     570    31.1
  44   14:20   50.7    32    1.1    53      2.7   815.5    0.00     545    31.2
  44   14:30   51.5    29    0.8    40      2.9   815.4    0.00     520    31.2
  44   14:40   53.6    25    0.7   340      2.3   815.4    0.00     493    31.2
  44   14:50   54.5    27    1.4   222      3.7   815.2    0.00     464    31.3
  44   15:00   56.5    24    0.2   222      1.2   815.1    0.00     435    31.4
  44   15:10   57.1    21    0.3    62      2.3   814.9    0.00     404    31.4
  44   15:20   52.2    33    1.2    93      3.1   814.9    0.00     372    31.4
  44   15:30   53.1    30    1.9   180      2.7   814.9    0.00     338    31.4
  44   15:40   54.8    28    1.9   190      2.6   814.8    0.00     306    31.4
  44   15:50   53.7    28    1.8   228      2.9   814.9    0.00     272    31.5
  44   16:00   52.7    29    1.3   329      2.4   814.9    0.00     240    31.5
  44   16:10   47.2    41    3.0   134      6.0   815.0    0.00     205    31.6
  44   16:20   48.4    34    1.9   144      2.5   815.1    0.00     173    31.6

Return to Ely, Nevada graphs page.


Western Regional Climate Center,wrcc@dri.edu